sensor_id;sensor_type;location;lat;lon;timestamp;P1;durP1;ratioP1;P2;durP2;ratioP2
27163;SDS011;14685;50.618;7.024;2023-05-20T00:03:08;3.35;;;2.08;;
27163;SDS011;14685;50.618;7.024;2023-05-20T00:06:10;3.10;;;2.03;;
27163;SDS011;14685;50.618;7.024;2023-05-20T00:09:03;2.33;;;2.13;;
27163;SDS011;14685;50.618;7.024;2023-05-20T00:12:28;3.33;;;2.17;;
27163;SDS011;14685;50.618;7.024;2023-05-20T00:15:45;4.90;;;2.38;;
27163;SDS011;14685;50.618;7.024;2023-05-20T00:18:40;2.53;;;1.90;;
27163;SDS011;14685;50.618;7.024;2023-05-20T00:21:36;5.57;;;2.22;;
27163;SDS011;14685;50.618;7.024;2023-05-20T00:24:28;3.50;;;2.28;;
27163;SDS011;14685;50.618;7.024;2023-05-20T00:27:36;2.97;;;2.22;;
27163;SDS011;14685;50.618;7.024;2023-05-20T00:30:21;3.15;;;2.10;;
27163;SDS011;14685;50.618;7.024;2023-05-20T00:33:07;3.35;;;2.28;;
27163;SDS011;14685;50.618;7.024;2023-05-20T00:35:52;3.42;;;2.10;;
27163;SDS011;14685;50.618;7.024;2023-05-20T00:38:45;4.30;;;2.30;;
27163;SDS011;14685;50.618;7.024;2023-05-20T00:41:31;3.70;;;1.98;;
27163;SDS011;14685;50.618;7.024;2023-05-20T00:44:20;4.10;;;2.47;;
27163;SDS011;14685;50.618;7.024;2023-05-20T00:47:31;3.45;;;2.40;;
27163;SDS011;14685;50.618;7.024;2023-05-20T00:50:00;3.08;;;2.00;;
27163;SDS011;14685;50.618;7.024;2023-05-20T00:52:30;7.20;;;2.45;;
27163;SDS011;14685;50.618;7.024;2023-05-20T00:55:01;7.25;;;2.35;;
27163;SDS011;14685;50.618;7.024;2023-05-20T00:57:29;3.33;;;2.25;;
27163;SDS011;14685;50.618;7.024;2023-05-20T01:00:00;2.90;;;2.00;;
27163;SDS011;14685;50.618;7.024;2023-05-20T01:02:30;2.92;;;2.10;;
27163;SDS011;14685;50.618;7.024;2023-05-20T01:05:18;2.75;;;2.25;;
27163;SDS011;14685;50.618;7.024;2023-05-20T01:08:03;2.85;;;2.00;;
27163;SDS011;14685;50.618;7.024;2023-05-20T01:10:50;3.03;;;2.15;;
27163;SDS011;14685;50.618;7.024;2023-05-20T01:13:45;5.25;;;2.63;;
27163;SDS011;14685;50.618;7.024;2023-05-20T01:16:35;4.55;;;2.08;;
27163;SDS011;14685;50.618;7.024;2023-05-20T01:19:45;4.55;;;1.90;;
27163;SDS011;14685;50.618;7.024;2023-05-20T01:22:54;2.65;;;2.20;;
27163;SDS011;14685;50.618;7.024;2023-05-20T01:25:42;2.63;;;2.17;;
27163;SDS011;14685;50.618;7.024;2023-05-20T01:28:35;3.80;;;2.33;;
27163;SDS011;14685;50.618;7.024;2023-05-20T01:31:25;2.90;;;2.50;;
27163;SDS011;14685;50.618;7.024;2023-05-20T01:34:43;3.53;;;2.38;;
27163;SDS011;14685;50.618;7.024;2023-05-20T01:37:15;3.88;;;2.50;;
27163;SDS011;14685;50.618;7.024;2023-05-20T01:40:19;2.85;;;2.30;;
27163;SDS011;14685;50.618;7.024;2023-05-20T01:43:38;2.60;;;2.40;;
27163;SDS011;14685;50.618;7.024;2023-05-20T01:46:52;3.28;;;2.17;;
27163;SDS011;14685;50.618;7.024;2023-05-20T01:49:34;3.13;;;2.13;;
27163;SDS011;14685;50.618;7.024;2023-05-20T01:52:13;6.57;;;2.22;;
27163;SDS011;14685;50.618;7.024;2023-05-20T01:54:56;4.30;;;2.00;;
27163;SDS011;14685;50.618;7.024;2023-05-20T01:57:27;2.72;;;2.50;;
27163;SDS011;14685;50.618;7.024;2023-05-20T02:00:10;4.35;;;2.40;;
27163;SDS011;14685;50.618;7.024;2023-05-20T02:02:52;3.25;;;2.28;;
27163;SDS011;14685;50.618;7.024;2023-05-20T02:05:33;2.08;;;1.73;;
27163;SDS011;14685;50.618;7.024;2023-05-20T02:08:04;6.35;;;2.10;;
27163;SDS011;14685;50.618;7.024;2023-05-20T02:10:33;5.10;;;2.28;;
27163;SDS011;14685;50.618;7.024;2023-05-20T02:13:01;2.53;;;2.08;;
27163;SDS011;14685;50.618;7.024;2023-05-20T02:15:29;3.75;;;2.38;;
27163;SDS011;14685;50.618;7.024;2023-05-20T02:17:58;2.72;;;2.25;;
27163;SDS011;14685;50.618;7.024;2023-05-20T02:20:35;2.63;;;1.92;;
27163;SDS011;14685;50.618;7.024;2023-05-20T02:23:08;3.35;;;2.38;;
27163;SDS011;14685;50.618;7.024;2023-05-20T02:25:39;2.00;;;1.85;;
27163;SDS011;14685;50.618;7.024;2023-05-20T02:28:48;4.68;;;2.30;;
27163;SDS011;14685;50.618;7.024;2023-05-20T02:31:54;2.78;;;2.40;;
27163;SDS011;14685;50.618;7.024;2023-05-20T02:34:40;4.40;;;2.22;;
27163;SDS011;14685;50.618;7.024;2023-05-20T02:37:11;3.80;;;2.03;;
27163;SDS011;14685;50.618;7.024;2023-05-20T02:39:39;5.93;;;2.50;;
27163;SDS011;14685;50.618;7.024;2023-05-20T02:42:09;3.88;;;2.00;;
27163;SDS011;14685;50.618;7.024;2023-05-20T02:44:43;3.58;;;1.80;;
27163;SDS011;14685;50.618;7.024;2023-05-20T02:47:12;2.45;;;2.00;;
27163;SDS011;14685;50.618;7.024;2023-05-20T02:49:45;3.08;;;2.20;;
27163;SDS011;14685;50.618;7.024;2023-05-20T02:52:27;3.20;;;1.92;;
27163;SDS011;14685;50.618;7.024;2023-05-20T02:55:10;4.35;;;2.00;;
27163;SDS011;14685;50.618;7.024;2023-05-20T02:57:52;2.65;;;2.28;;
27163;SDS011;14685;50.618;7.024;2023-05-20T03:00:23;4.50;;;2.30;;
27163;SDS011;14685;50.618;7.024;2023-05-20T03:03:01;2.88;;;2.40;;
27163;SDS011;14685;50.618;7.024;2023-05-20T03:05:30;3.85;;;2.33;;
27163;SDS011;14685;50.618;7.024;2023-05-20T03:08:11;5.25;;;2.17;;
27163;SDS011;14685;50.618;7.024;2023-05-20T03:11:01;3.83;;;2.38;;
27163;SDS011;14685;50.618;7.024;2023-05-20T03:14:08;4.47;;;2.42;;
27163;SDS011;14685;50.618;7.024;2023-05-20T03:17:54;4.95;;;2.45;;
27163;SDS011;14685;50.618;7.024;2023-05-20T03:21:43;4.30;;;2.40;;
27163;SDS011;14685;50.618;7.024;2023-05-20T03:24:18;2.83;;;2.22;;
27163;SDS011;14685;50.618;7.024;2023-05-20T03:26:58;3.90;;;2.72;;
27163;SDS011;14685;50.618;7.024;2023-05-20T03:29:40;3.92;;;2.60;;
27163;SDS011;14685;50.618;7.024;2023-05-20T03:32:10;2.83;;;2.60;;
27163;SDS011;14685;50.618;7.024;2023-05-20T03:34:42;3.47;;;3.10;;
27163;SDS011;14685;50.618;7.024;2023-05-20T03:37:14;3.58;;;2.70;;
27163;SDS011;14685;50.618;7.024;2023-05-20T03:39:42;4.82;;;2.72;;
27163;SDS011;14685;50.618;7.024;2023-05-20T03:42:10;5.75;;;3.15;;
27163;SDS011;14685;50.618;7.024;2023-05-20T03:44:39;4.38;;;2.85;;
27163;SDS011;14685;50.618;7.024;2023-05-20T03:47:12;4.25;;;3.13;;
27163;SDS011;14685;50.618;7.024;2023-05-20T03:50:03;2.83;;;2.60;;
27163;SDS011;14685;50.618;7.024;2023-05-20T03:52:45;5.10;;;2.80;;
27163;SDS011;14685;50.618;7.024;2023-05-20T03:55:20;3.65;;;2.85;;
27163;SDS011;14685;50.618;7.024;2023-05-20T03:57:52;4.38;;;2.83;;
27163;SDS011;14685;50.618;7.024;2023-05-20T04:00:37;4.63;;;2.88;;
27163;SDS011;14685;50.618;7.024;2023-05-20T04:03:09;4.10;;;2.90;;
27163;SDS011;14685;50.618;7.024;2023-05-20T04:05:52;4.13;;;2.78;;
27163;SDS011;14685;50.618;7.024;2023-05-20T04:08:20;4.10;;;3.28;;
27163;SDS011;14685;50.618;7.024;2023-05-20T04:10:56;4.78;;;2.70;;
27163;SDS011;14685;50.618;7.024;2023-05-20T04:13:25;7.30;;;3.17;;
27163;SDS011;14685;50.618;7.024;2023-05-20T04:15:56;4.88;;;2.50;;
27163;SDS011;14685;50.618;7.024;2023-05-20T04:18:25;4.78;;;2.88;;
27163;SDS011;14685;50.618;7.024;2023-05-20T04:21:00;4.03;;;2.92;;
27163;SDS011;14685;50.618;7.024;2023-05-20T04:23:39;5.20;;;2.65;;
27163;SDS011;14685;50.618;7.024;2023-05-20T04:26:13;2.40;;;2.15;;
27163;SDS011;14685;50.618;7.024;2023-05-20T04:28:56;3.38;;;2.55;;
27163;SDS011;14685;50.618;7.024;2023-05-20T04:31:27;4.60;;;2.70;;
27163;SDS011;14685;50.618;7.024;2023-05-20T04:33:58;3.60;;;2.90;;
27163;SDS011;14685;50.618;7.024;2023-05-20T04:36:52;6.05;;;2.88;;
27163;SDS011;14685;50.618;7.024;2023-05-20T04:39:56;2.80;;;2.38;;
27163;SDS011;14685;50.618;7.024;2023-05-20T04:42:46;4.15;;;2.65;;
27163;SDS011;14685;50.618;7.024;2023-05-20T04:45:30;5.93;;;3.33;;
27163;SDS011;14685;50.618;7.024;2023-05-20T04:48:24;4.00;;;3.53;;
27163;SDS011;14685;50.618;7.024;2023-05-20T04:51:30;4.18;;;2.90;;
27163;SDS011;14685;50.618;7.024;2023-05-20T04:54:13;4.55;;;3.30;;
27163;SDS011;14685;50.618;7.024;2023-05-20T04:57:03;3.75;;;2.70;;
27163;SDS011;14685;50.618;7.024;2023-05-20T05:00:55;6.30;;;3.08;;
27163;SDS011;14685;50.618;7.024;2023-05-20T05:04:03;4.80;;;3.10;;
27163;SDS011;14685;50.618;7.024;2023-05-20T05:07:26;5.50;;;2.72;;
27163;SDS011;14685;50.618;7.024;2023-05-20T05:10:27;6.53;;;3.33;;
27163;SDS011;14685;50.618;7.024;2023-05-20T05:12:56;4.22;;;3.20;;
27163;SDS011;14685;50.618;7.024;2023-05-20T05:15:33;10.90;;;3.63;;
27163;SDS011;14685;50.618;7.024;2023-05-20T05:18:06;5.75;;;3.50;;
27163;SDS011;14685;50.618;7.024;2023-05-20T05:20:35;6.50;;;3.15;;
27163;SDS011;14685;50.618;7.024;2023-05-20T05:23:02;4.47;;;3.38;;
27163;SDS011;14685;50.618;7.024;2023-05-20T05:25:33;8.20;;;3.28;;
27163;SDS011;14685;50.618;7.024;2023-05-20T05:28:06;4.13;;;3.20;;
27163;SDS011;14685;50.618;7.024;2023-05-20T05:30:37;5.55;;;3.53;;
27163;SDS011;14685;50.618;7.024;2023-05-20T05:33:08;5.68;;;3.10;;
27163;SDS011;14685;50.618;7.024;2023-05-20T05:35:44;6.53;;;3.42;;
27163;SDS011;14685;50.618;7.024;2023-05-20T05:38:19;4.80;;;3.10;;
27163;SDS011;14685;50.618;7.024;2023-05-20T05:40:48;5.00;;;3.60;;
27163;SDS011;14685;50.618;7.024;2023-05-20T05:43:22;3.42;;;2.78;;
27163;SDS011;14685;50.618;7.024;2023-05-20T05:46:05;4.80;;;3.10;;
27163;SDS011;14685;50.618;7.024;2023-05-20T05:48:47;3.83;;;3.30;;
27163;SDS011;14685;50.618;7.024;2023-05-20T05:51:50;6.47;;;3.40;;
27163;SDS011;14685;50.618;7.024;2023-05-20T05:54:40;8.00;;;3.55;;
27163;SDS011;14685;50.618;7.024;2023-05-20T05:57:45;4.70;;;3.50;;
27163;SDS011;14685;50.618;7.024;2023-05-20T06:00:35;4.82;;;3.10;;
27163;SDS011;14685;50.618;7.024;2023-05-20T06:03:29;5.15;;;3.45;;
27163;SDS011;14685;50.618;7.024;2023-05-20T06:06:06;6.93;;;3.80;;
27163;SDS011;14685;50.618;7.024;2023-05-20T06:08:47;5.05;;;3.58;;
27163;SDS011;14685;50.618;7.024;2023-05-20T06:12:10;6.82;;;3.25;;
27163;SDS011;14685;50.618;7.024;2023-05-20T06:14:51;6.95;;;3.38;;
27163;SDS011;14685;50.618;7.024;2023-05-20T06:17:18;8.00;;;3.42;;
27163;SDS011;14685;50.618;7.024;2023-05-20T06:19:46;4.60;;;3.35;;
27163;SDS011;14685;50.618;7.024;2023-05-20T06:22:13;5.00;;;3.83;;
27163;SDS011;14685;50.618;7.024;2023-05-20T06:24:42;4.85;;;3.70;;
27163;SDS011;14685;50.618;7.024;2023-05-20T06:27:18;5.38;;;3.63;;
27163;SDS011;14685;50.618;7.024;2023-05-20T06:30:06;7.78;;;3.92;;
27163;SDS011;14685;50.618;7.024;2023-05-20T06:32:51;5.95;;;3.67;;
27163;SDS011;14685;50.618;7.024;2023-05-20T06:35:34;6.63;;;3.72;;
27163;SDS011;14685;50.618;7.024;2023-05-20T06:38:17;7.25;;;3.83;;
27163;SDS011;14685;50.618;7.024;2023-05-20T06:41:01;8.60;;;4.03;;
27163;SDS011;14685;50.618;7.024;2023-05-20T06:43:28;5.32;;;3.55;;
27163;SDS011;14685;50.618;7.024;2023-05-20T06:45:56;6.63;;;3.30;;
27163;SDS011;14685;50.618;7.024;2023-05-20T06:48:26;5.53;;;3.83;;
27163;SDS011;14685;50.618;7.024;2023-05-20T06:50:58;5.10;;;3.30;;
27163;SDS011;14685;50.618;7.024;2023-05-20T06:53:28;6.03;;;3.70;;
27163;SDS011;14685;50.618;7.024;2023-05-20T06:55:59;5.55;;;4.25;;
27163;SDS011;14685;50.618;7.024;2023-05-20T06:58:37;6.97;;;3.35;;
27163;SDS011;14685;50.618;7.024;2023-05-20T07:01:09;6.38;;;3.90;;
27163;SDS011;14685;50.618;7.024;2023-05-20T07:04:02;4.25;;;3.70;;
27163;SDS011;14685;50.618;7.024;2023-05-20T07:06:46;4.30;;;3.53;;
27163;SDS011;14685;50.618;7.024;2023-05-20T07:09:27;6.00;;;3.08;;
27163;SDS011;14685;50.618;7.024;2023-05-20T07:12:11;6.43;;;3.80;;
27163;SDS011;14685;50.618;7.024;2023-05-20T07:14:56;7.60;;;3.83;;
27163;SDS011;14685;50.618;7.024;2023-05-20T07:17:39;4.72;;;3.85;;
27163;SDS011;14685;50.618;7.024;2023-05-20T07:20:22;5.97;;;3.83;;
27163;SDS011;14685;50.618;7.024;2023-05-20T07:23:05;4.38;;;3.55;;
27163;SDS011;14685;50.618;7.024;2023-05-20T07:25:48;4.70;;;3.40;;
27163;SDS011;14685;50.618;7.024;2023-05-20T07:28:19;5.03;;;4.47;;
27163;SDS011;14685;50.618;7.024;2023-05-20T07:31:03;4.78;;;4.03;;
27163;SDS011;14685;50.618;7.024;2023-05-20T07:33:45;6.35;;;3.55;;
27163;SDS011;14685;50.618;7.024;2023-05-20T07:36:19;4.85;;;3.80;;
27163;SDS011;14685;50.618;7.024;2023-05-20T07:38:46;6.78;;;3.70;;
27163;SDS011;14685;50.618;7.024;2023-05-20T07:41:27;6.20;;;4.07;;
27163;SDS011;14685;50.618;7.024;2023-05-20T07:43:55;4.97;;;3.97;;
27163;SDS011;14685;50.618;7.024;2023-05-20T07:46:29;7.90;;;4.25;;
27163;SDS011;14685;50.618;7.024;2023-05-20T07:48:58;7.82;;;3.78;;
27163;SDS011;14685;50.618;7.024;2023-05-20T07:51:41;6.70;;;4.18;;
27163;SDS011;14685;50.618;7.024;2023-05-20T07:54:40;5.40;;;3.92;;
27163;SDS011;14685;50.618;7.024;2023-05-20T07:57:22;7.97;;;3.83;;
27163;SDS011;14685;50.618;7.024;2023-05-20T08:00:04;4.63;;;3.60;;
27163;SDS011;14685;50.618;7.024;2023-05-20T08:02:49;7.25;;;3.83;;
27163;SDS011;14685;50.618;7.024;2023-05-20T08:05:30;7.15;;;3.60;;
27163;SDS011;14685;50.618;7.024;2023-05-20T08:07:58;6.40;;;3.92;;
27163;SDS011;14685;50.618;7.024;2023-05-20T08:10:42;8.00;;;4.10;;
27163;SDS011;14685;50.618;7.024;2023-05-20T08:13:33;4.97;;;3.55;;
27163;SDS011;14685;50.618;7.024;2023-05-20T08:16:15;4.40;;;3.70;;
27163;SDS011;14685;50.618;7.024;2023-05-20T08:19:00;5.30;;;3.88;;
27163;SDS011;14685;50.618;7.024;2023-05-20T08:21:43;4.07;;;3.38;;
27163;SDS011;14685;50.618;7.024;2023-05-20T08:24:12;4.43;;;3.80;;
27163;SDS011;14685;50.618;7.024;2023-05-20T08:26:39;7.40;;;3.45;;
27163;SDS011;14685;50.618;7.024;2023-05-20T08:29:20;7.35;;;3.55;;
27163;SDS011;14685;50.618;7.024;2023-05-20T08:32:04;4.70;;;3.30;;
27163;SDS011;14685;50.618;7.024;2023-05-20T08:34:46;7.00;;;3.65;;
27163;SDS011;14685;50.618;7.024;2023-05-20T08:37:32;5.70;;;3.92;;
27163;SDS011;14685;50.618;7.024;2023-05-20T08:40:15;6.15;;;3.85;;
27163;SDS011;14685;50.618;7.024;2023-05-20T08:43:01;4.30;;;3.17;;
27163;SDS011;14685;50.618;7.024;2023-05-20T08:45:44;3.90;;;3.53;;
27163;SDS011;14685;50.618;7.024;2023-05-20T08:48:37;6.60;;;3.65;;
27163;SDS011;14685;50.618;7.024;2023-05-20T08:51:19;5.30;;;3.80;;
27163;SDS011;14685;50.618;7.024;2023-05-20T08:54:04;6.63;;;3.83;;
27163;SDS011;14685;50.618;7.024;2023-05-20T08:56:53;5.70;;;3.90;;
27163;SDS011;14685;50.618;7.024;2023-05-20T08:59:36;5.35;;;3.45;;
27163;SDS011;14685;50.618;7.024;2023-05-20T09:02:20;5.53;;;4.18;;
27163;SDS011;14685;50.618;7.024;2023-05-20T09:05:03;3.85;;;3.53;;
27163;SDS011;14685;50.618;7.024;2023-05-20T09:07:50;3.83;;;3.28;;
27163;SDS011;14685;50.618;7.024;2023-05-20T09:10:39;4.28;;;3.55;;
27163;SDS011;14685;50.618;7.024;2023-05-20T09:13:40;4.95;;;3.80;;
27163;SDS011;14685;50.618;7.024;2023-05-20T09:16:43;4.18;;;3.78;;
27163;SDS011;14685;50.618;7.024;2023-05-20T09:19:29;5.63;;;4.00;;
27163;SDS011;14685;50.618;7.024;2023-05-20T09:22:13;5.40;;;3.63;;
27163;SDS011;14685;50.618;7.024;2023-05-20T09:25:11;4.35;;;3.53;;
27163;SDS011;14685;50.618;7.024;2023-05-20T09:27:59;5.28;;;3.75;;
27163;SDS011;14685;50.618;7.024;2023-05-20T09:30:30;6.38;;;3.92;;
27163;SDS011;14685;50.618;7.024;2023-05-20T09:33:00;5.80;;;3.92;;
27163;SDS011;14685;50.618;7.024;2023-05-20T09:35:33;4.65;;;3.60;;
27163;SDS011;14685;50.618;7.024;2023-05-20T09:38:18;5.63;;;3.70;;
27163;SDS011;14685;50.618;7.024;2023-05-20T09:41:05;5.23;;;3.87;;
27163;SDS011;14685;50.618;7.024;2023-05-20T09:43:49;4.70;;;3.78;;
27163;SDS011;14685;50.618;7.024;2023-05-20T09:46:32;5.47;;;3.53;;
27163;SDS011;14685;50.618;7.024;2023-05-20T09:49:15;6.57;;;3.50;;
27163;SDS011;14685;50.618;7.024;2023-05-20T09:51:58;4.00;;;3.60;;
27163;SDS011;14685;50.618;7.024;2023-05-20T09:54:47;5.57;;;3.72;;
27163;SDS011;14685;50.618;7.024;2023-05-20T09:57:34;4.72;;;3.72;;
27163;SDS011;14685;50.618;7.024;2023-05-20T10:00:05;8.45;;;3.78;;
27163;SDS011;14685;50.618;7.024;2023-05-20T10:02:52;5.00;;;3.80;;
27163;SDS011;14685;50.618;7.024;2023-05-20T10:05:39;5.18;;;3.85;;
27163;SDS011;14685;50.618;7.024;2023-05-20T10:12:11;3.88;;;3.47;;
27163;SDS011;14685;50.618;7.024;2023-05-20T10:22:06;4.13;;;3.47;;
27163;SDS011;14685;50.618;7.024;2023-05-20T10:24:39;4.93;;;4.00;;
27163;SDS011;14685;50.618;7.024;2023-05-20T10:27:27;5.13;;;3.92;;
27163;SDS011;14685;50.618;7.024;2023-05-20T10:30:02;7.15;;;4.05;;
27163;SDS011;14685;50.618;7.024;2023-05-20T10:33:04;4.68;;;3.70;;
27163;SDS011;14685;50.618;7.024;2023-05-20T10:36:09;5.97;;;4.23;;
27163;SDS011;14685;50.618;7.024;2023-05-20T10:38:50;4.85;;;3.85;;
27163;SDS011;14685;50.618;7.024;2023-05-20T10:41:36;5.03;;;3.88;;
27163;SDS011;14685;50.618;7.024;2023-05-20T10:44:14;4.50;;;4.10;;
27163;SDS011;14685;50.618;7.024;2023-05-20T10:47:01;5.47;;;4.22;;
27163;SDS011;14685;50.618;7.024;2023-05-20T10:49:52;6.03;;;4.22;;
27163;SDS011;14685;50.618;7.024;2023-05-20T10:52:48;4.85;;;3.80;;
27163;SDS011;14685;50.618;7.024;2023-05-20T10:55:33;4.68;;;4.18;;
27163;SDS011;14685;50.618;7.024;2023-05-20T10:59:02;4.00;;;3.58;;
27163;SDS011;14685;50.618;7.024;2023-05-20T11:01:31;4.93;;;3.95;;
27163;SDS011;14685;50.618;7.024;2023-05-20T11:03:58;7.03;;;3.72;;
27163;SDS011;14685;50.618;7.024;2023-05-20T11:06:36;5.85;;;4.22;;
27163;SDS011;14685;50.618;7.024;2023-05-20T11:09:10;4.97;;;3.72;;
27163;SDS011;14685;50.618;7.024;2023-05-20T11:11:54;4.50;;;4.00;;
27163;SDS011;14685;50.618;7.024;2023-05-20T11:14:40;4.38;;;3.95;;
27163;SDS011;14685;50.618;7.024;2023-05-20T11:17:34;5.22;;;4.28;;
27163;SDS011;14685;50.618;7.024;2023-05-20T11:20:23;5.47;;;4.40;;
27163;SDS011;14685;50.618;7.024;2023-05-20T11:23:10;4.80;;;4.35;;
27163;SDS011;14685;50.618;7.024;2023-05-20T11:26:00;6.40;;;4.32;;
27163;SDS011;14685;50.618;7.024;2023-05-20T11:28:31;6.65;;;4.88;;
27163;SDS011;14685;50.618;7.024;2023-05-20T11:31:44;5.32;;;4.60;;
27163;SDS011;14685;50.618;7.024;2023-05-20T11:34:55;4.88;;;4.40;;
27163;SDS011;14685;50.618;7.024;2023-05-20T11:37:57;6.05;;;4.40;;
27163;SDS011;14685;50.618;7.024;2023-05-20T11:40:49;5.70;;;4.60;;
27163;SDS011;14685;50.618;7.024;2023-05-20T11:43:57;5.78;;;4.55;;
27163;SDS011;14685;50.618;7.024;2023-05-20T11:46:48;5.50;;;4.65;;
27163;SDS011;14685;50.618;7.024;2023-05-20T11:49:15;5.07;;;4.57;;
27163;SDS011;14685;50.618;7.024;2023-05-20T11:51:50;6.43;;;4.80;;
27163;SDS011;14685;50.618;7.024;2023-05-20T11:54:39;5.35;;;4.78;;
27163;SDS011;14685;50.618;7.024;2023-05-20T11:57:30;5.82;;;5.03;;
27163;SDS011;14685;50.618;7.024;2023-05-20T12:00:03;13.68;;;5.07;;
27163;SDS011;14685;50.618;7.024;2023-05-20T12:03:08;9.05;;;5.20;;
27163;SDS011;14685;50.618;7.024;2023-05-20T12:06:05;6.38;;;4.72;;
27163;SDS011;14685;50.618;7.024;2023-05-20T12:09:25;6.32;;;5.00;;
27163;SDS011;14685;50.618;7.024;2023-05-20T12:12:01;7.20;;;5.18;;
27163;SDS011;14685;50.618;7.024;2023-05-20T12:14:57;5.05;;;4.55;;
27163;SDS011;14685;50.618;7.024;2023-05-20T12:17:51;8.07;;;5.25;;
27163;SDS011;14685;50.618;7.024;2023-05-20T12:21:05;6.68;;;4.68;;
27163;SDS011;14685;50.618;7.024;2023-05-20T12:24:10;7.85;;;5.63;;
27163;SDS011;14685;50.618;7.024;2023-05-20T12:27:52;5.15;;;4.70;;
27163;SDS011;14685;50.618;7.024;2023-05-20T12:34:10;5.18;;;4.68;;
27163;SDS011;14685;50.618;7.024;2023-05-20T12:36:52;7.65;;;5.43;;
27163;SDS011;14685;50.618;7.024;2023-05-20T12:39:33;12.30;;;5.43;;
27163;SDS011;14685;50.618;7.024;2023-05-20T12:42:17;5.30;;;4.80;;
27163;SDS011;14685;50.618;7.024;2023-05-20T12:44:55;5.72;;;5.13;;
27163;SDS011;14685;50.618;7.024;2023-05-20T12:47:22;6.85;;;4.88;;
27163;SDS011;14685;50.618;7.024;2023-05-20T12:50:03;8.10;;;5.03;;
27163;SDS011;14685;50.618;7.024;2023-05-20T12:53:15;9.23;;;5.22;;
27163;SDS011;14685;50.618;7.024;2023-05-20T12:55:58;10.20;;;5.05;;
27163;SDS011;14685;50.618;7.024;2023-05-20T12:59:33;7.22;;;4.95;;
27163;SDS011;14685;50.618;7.024;2023-05-20T13:02:44;8.52;;;5.05;;
27163;SDS011;14685;50.618;7.024;2023-05-20T13:05:26;5.00;;;4.60;;
27163;SDS011;14685;50.618;7.024;2023-05-20T13:08:55;6.47;;;4.93;;
27163;SDS011;14685;50.618;7.024;2023-05-20T13:11:53;5.88;;;4.40;;
27163;SDS011;14685;50.618;7.024;2023-05-20T13:15:27;6.22;;;5.20;;
27163;SDS011;14685;50.618;7.024;2023-05-20T13:18:12;5.57;;;4.88;;
27163;SDS011;14685;50.618;7.024;2023-05-20T13:20:55;5.25;;;4.63;;
27163;SDS011;14685;50.618;7.024;2023-05-20T13:24:24;5.28;;;4.47;;
27163;SDS011;14685;50.618;7.024;2023-05-20T13:27:12;6.00;;;4.88;;
27163;SDS011;14685;50.618;7.024;2023-05-20T13:29:59;5.07;;;4.57;;
27163;SDS011;14685;50.618;7.024;2023-05-20T13:32:56;5.47;;;4.15;;
27163;SDS011;14685;50.618;7.024;2023-05-20T13:36:31;8.02;;;5.13;;
27163;SDS011;14685;50.618;7.024;2023-05-20T13:40:10;7.22;;;5.43;;
27163;SDS011;14685;50.618;7.024;2023-05-20T13:46:40;6.60;;;5.13;;
27163;SDS011;14685;50.618;7.024;2023-05-20T13:50:19;4.95;;;4.45;;
27163;SDS011;14685;50.618;7.024;2023-05-20T13:53:44;6.53;;;4.80;;
27163;SDS011;14685;50.618;7.024;2023-05-20T13:57:49;5.43;;;4.70;;
27163;SDS011;14685;50.618;7.024;2023-05-20T14:01:06;5.00;;;4.50;;
27163;SDS011;14685;50.618;7.024;2023-05-20T14:03:55;9.02;;;4.95;;
27163;SDS011;14685;50.618;7.024;2023-05-20T14:07:37;5.10;;;4.68;;
27163;SDS011;14685;50.618;7.024;2023-05-20T14:10:39;5.88;;;4.97;;
27163;SDS011;14685;50.618;7.024;2023-05-20T14:13:11;6.47;;;5.20;;
27163;SDS011;14685;50.618;7.024;2023-05-20T14:15:38;8.73;;;4.93;;
27163;SDS011;14685;50.618;7.024;2023-05-20T14:18:07;6.88;;;5.00;;
27163;SDS011;14685;50.618;7.024;2023-05-20T14:20:55;6.05;;;4.72;;
27163;SDS011;14685;50.618;7.024;2023-05-20T14:23:39;7.00;;;5.45;;
27163;SDS011;14685;50.618;7.024;2023-05-20T14:29:36;5.65;;;5.13;;
27163;SDS011;14685;50.618;7.024;2023-05-20T14:33:02;5.72;;;5.07;;
27163;SDS011;14685;50.618;7.024;2023-05-20T14:35:44;5.82;;;5.00;;
27163;SDS011;14685;50.618;7.024;2023-05-20T14:38:29;9.02;;;7.28;;
27163;SDS011;14685;50.618;7.024;2023-05-20T14:41:05;7.07;;;5.20;;
27163;SDS011;14685;50.618;7.024;2023-05-20T14:43:47;7.90;;;5.40;;
27163;SDS011;14685;50.618;7.024;2023-05-20T14:46:43;5.60;;;5.07;;
27163;SDS011;14685;50.618;7.024;2023-05-20T14:49:24;6.13;;;5.15;;
27163;SDS011;14685;50.618;7.024;2023-05-20T14:52:09;5.72;;;5.20;;
27163;SDS011;14685;50.618;7.024;2023-05-20T14:54:52;6.57;;;5.53;;
27163;SDS011;14685;50.618;7.024;2023-05-20T14:57:54;5.82;;;5.30;;
27163;SDS011;14685;50.618;7.024;2023-05-20T15:00:30;8.60;;;5.85;;
27163;SDS011;14685;50.618;7.024;2023-05-20T15:03:22;6.47;;;5.47;;
27163;SDS011;14685;50.618;7.024;2023-05-20T15:06:16;5.78;;;5.15;;
27163;SDS011;14685;50.618;7.024;2023-05-20T15:09:00;6.38;;;5.70;;
27163;SDS011;14685;50.618;7.024;2023-05-20T15:11:30;6.97;;;5.82;;
27163;SDS011;14685;50.618;7.024;2023-05-20T15:14:18;6.30;;;5.55;;
27163;SDS011;14685;50.618;7.024;2023-05-20T15:16:58;6.70;;;6.07;;
27163;SDS011;14685;50.618;7.024;2023-05-20T15:19:44;10.98;;;6.07;;
27163;SDS011;14685;50.618;7.024;2023-05-20T15:22:26;5.65;;;5.07;;
27163;SDS011;14685;50.618;7.024;2023-05-20T15:25:28;7.40;;;5.78;;
27163;SDS011;14685;50.618;7.024;2023-05-20T15:28:08;10.00;;;6.07;;
27163;SDS011;14685;50.618;7.024;2023-05-20T15:30:52;6.22;;;5.57;;
27163;SDS011;14685;50.618;7.024;2023-05-20T15:33:35;6.75;;;5.72;;
27163;SDS011;14685;50.618;7.024;2023-05-20T15:36:23;6.68;;;5.45;;
27163;SDS011;14685;50.618;7.024;2023-05-20T15:39:29;6.30;;;5.68;;
27163;SDS011;14685;50.618;7.024;2023-05-20T15:42:28;7.10;;;5.78;;
27163;SDS011;14685;50.618;7.024;2023-05-20T15:45:16;7.35;;;5.88;;
27163;SDS011;14685;50.618;7.024;2023-05-20T15:47:44;6.10;;;5.50;;
27163;SDS011;14685;50.618;7.024;2023-05-20T15:50:12;5.75;;;5.03;;
27163;SDS011;14685;50.618;7.024;2023-05-20T15:52:58;5.90;;;5.28;;
27163;SDS011;14685;50.618;7.024;2023-05-20T15:55:48;5.65;;;5.15;;
27163;SDS011;14685;50.618;7.024;2023-05-20T15:58:36;7.88;;;5.88;;
27163;SDS011;14685;50.618;7.024;2023-05-20T16:01:25;5.90;;;4.75;;
27163;SDS011;14685;50.618;7.024;2023-05-20T16:04:09;5.13;;;4.72;;
27163;SDS011;14685;50.618;7.024;2023-05-20T16:06:53;5.85;;;5.22;;
27163;SDS011;14685;50.618;7.024;2023-05-20T16:09:36;6.00;;;5.35;;
27163;SDS011;14685;50.618;7.024;2023-05-20T16:12:23;7.47;;;5.63;;
27163;SDS011;14685;50.618;7.024;2023-05-20T16:15:06;6.43;;;5.20;;
27163;SDS011;14685;50.618;7.024;2023-05-20T16:18:21;8.07;;;5.28;;
27163;SDS011;14685;50.618;7.024;2023-05-20T16:21:02;6.85;;;4.93;;
27163;SDS011;14685;50.618;7.024;2023-05-20T16:23:33;8.95;;;4.72;;
27163;SDS011;14685;50.618;7.024;2023-05-20T16:26:27;5.88;;;5.28;;
27163;SDS011;14685;50.618;7.024;2023-05-20T16:28:57;6.00;;;4.75;;
27163;SDS011;14685;50.618;7.024;2023-05-20T16:31:24;6.57;;;5.10;;
27163;SDS011;14685;50.618;7.024;2023-05-20T16:33:53;7.88;;;5.55;;
27163;SDS011;14685;50.618;7.024;2023-05-20T16:36:21;6.55;;;5.18;;
27163;SDS011;14685;50.618;7.024;2023-05-20T16:38:49;7.00;;;5.32;;
27163;SDS011;14685;50.618;7.024;2023-05-20T16:41:25;5.30;;;4.78;;
27163;SDS011;14685;50.618;7.024;2023-05-20T16:44:08;6.07;;;4.72;;
27163;SDS011;14685;50.618;7.024;2023-05-20T16:46:52;7.00;;;5.50;;
27163;SDS011;14685;50.618;7.024;2023-05-20T16:49:53;6.13;;;5.53;;
27163;SDS011;14685;50.618;7.024;2023-05-20T16:52:35;5.78;;;4.90;;
27163;SDS011;14685;50.618;7.024;2023-05-20T16:55:19;6.38;;;5.15;;
27163;SDS011;14685;50.618;7.024;2023-05-20T16:57:46;5.72;;;5.10;;
27163;SDS011;14685;50.618;7.024;2023-05-20T17:00:16;7.65;;;5.60;;
27163;SDS011;14685;50.618;7.024;2023-05-20T17:02:57;6.68;;;5.50;;
27163;SDS011;14685;50.618;7.024;2023-05-20T17:05:38;5.88;;;5.07;;